Main page
METAR-TAF:

METAR-TAF

Airports :

Wellington, New Zealand

Wellington International Airport

latitude: 41-20S, longitude: 174-48E, elevation: 12 m

Current weather observation

The report was made 25 minutes ago, at 11:30 UTC
Wind 9 kt from the North/Northeast
Temperature 13°C
Humidity 88%
Pressure 1021 hPa
Visibility 10 km or more

METAR: NZWN 261130Z AUTO 02009KT 9999 NCD 13/11 Q1021 NOSIG

Time: 23:55 (11:55 UTC)

Forecast

The report was made 55 minutes ago, at 11:00 UTC
Forecast valid from 26 at 12 UTC to 27 at 12 UTC
Wind 15 kt from the North
Visibility 10 km or more
no clouds below 1500 m and no cumulonimbus
From 26 at 2000 UTC
Wind 15 kt from the North with gusts up to 25 kt
Visibility 10 km or more
Few clouds at a height of 2000 ft
Broken clouds at a height of 3000 ft

TAF: NZWN 261100Z 2612/2712 36015KT CAVOK FM262000 36015G25KT 9999 FEW020 BKN030

Weather observations and forecasts of more than 4000 airports (METAR and TAF reports).

The available stations are represented by yellow and red dots on the map.

Hover mouse over dot to see the name of the station.

Then click to see weather observations and forecasts.

To change the map : click on the green buttons with a black cross to zoom in, on the green button with a dash to zoom out, or on the green arrows for adjacent maps.


METAR-TAF: